Terminal Aerodrome Forecast
Issued by NWS Green Bay, WI

Home | Current Version | Previous Version | Text Only | Print | Product List | Glossary On
Versions: 1 2 3 4 5 6 7 8 9 10 11 12 13 14 15 16 17 18 19 20 21 22 23 24 25 26 27 28
000
FTUS43 KGRB 272332
TAFGRB
TAF
KGRB 272332Z 2800/2824 06007KT P6SM BKN110
     FM280200 04006KT P6SM -SHRA SCT040 BKN100
      TEMPO 2802/2806 2SM +TSRA BR BKN040CB
     FM280600 03007KT 5SM BR VCSH SCT025 OVC040
     FM280900 02008KT 5SM BR SCT010 OVC025
      TEMPO 2809/2813 2SM -SHRA BR BKN010
     FM281400 04007KT P6SM VCSH BKN035
     FM281800 04009KT P6SM SCT045 BKN120=

USA.gov is the U.S. government's official web portal to all federal, state and local government web resources and services.